sensor_id;sensor_type;location;lat;lon;timestamp;temperature;humidity
13336;DHT22;6737;51.480;11.962;2024-01-30T00:01:29;3.30;99.90
13336;DHT22;6737;51.480;11.962;2024-01-30T00:03:55;3.20;99.90
13336;DHT22;6737;51.480;11.962;2024-01-30T00:06:21;3.20;99.90
13336;DHT22;6737;51.480;11.962;2024-01-30T00:08:47;3.20;99.90
13336;DHT22;6737;51.480;11.962;2024-01-30T00:11:15;3.20;99.90
13336;DHT22;6737;51.480;11.962;2024-01-30T00:13:41;3.20;99.90
13336;DHT22;6737;51.480;11.962;2024-01-30T00:16:07;3.20;99.90
13336;DHT22;6737;51.480;11.962;2024-01-30T00:18:34;3.20;99.90
13336;DHT22;6737;51.480;11.962;2024-01-30T00:21:00;3.20;99.90
13336;DHT22;6737;51.480;11.962;2024-01-30T00:23:25;3.10;99.90
13336;DHT22;6737;51.480;11.962;2024-01-30T00:25:51;3.10;99.90
13336;DHT22;6737;51.480;11.962;2024-01-30T00:28:17;3.00;99.90
13336;DHT22;6737;51.480;11.962;2024-01-30T00:30:43;2.90;99.90
13336;DHT22;6737;51.480;11.962;2024-01-30T00:33:09;2.70;99.90
13336;DHT22;6737;51.480;11.962;2024-01-30T00:35:35;2.80;99.90
13336;DHT22;6737;51.480;11.962;2024-01-30T00:38:01;2.80;99.90
13336;DHT22;6737;51.480;11.962;2024-01-30T00:40:26;2.90;99.90
13336;DHT22;6737;51.480;11.962;2024-01-30T00:42:52;2.80;99.90
13336;DHT22;6737;51.480;11.962;2024-01-30T00:45:18;2.80;99.90
13336;DHT22;6737;51.480;11.962;2024-01-30T00:47:44;2.90;99.90
13336;DHT22;6737;51.480;11.962;2024-01-30T00:50:11;2.90;99.90
13336;DHT22;6737;51.480;11.962;2024-01-30T00:52:37;3.00;99.90
13336;DHT22;6737;51.480;11.962;2024-01-30T00:55:05;3.00;99.90
13336;DHT22;6737;51.480;11.962;2024-01-30T00:57:30;3.00;99.90
13336;DHT22;6737;51.480;11.962;2024-01-30T00:59:57;3.00;99.90
13336;DHT22;6737;51.480;11.962;2024-01-30T01:02:23;3.00;99.90
13336;DHT22;6737;51.480;11.962;2024-01-30T01:04:50;2.80;99.90
13336;DHT22;6737;51.480;11.962;2024-01-30T01:07:15;2.70;99.90
13336;DHT22;6737;51.480;11.962;2024-01-30T01:09:41;2.70;99.90
13336;DHT22;6737;51.480;11.962;2024-01-30T01:12:07;2.70;99.90
13336;DHT22;6737;51.480;11.962;2024-01-30T01:14:33;2.80;99.90
13336;DHT22;6737;51.480;11.962;2024-01-30T01:16:59;2.80;99.90
13336;DHT22;6737;51.480;11.962;2024-01-30T01:19:24;2.80;99.90
13336;DHT22;6737;51.480;11.962;2024-01-30T01:21:50;2.70;99.90
13336;DHT22;6737;51.480;11.962;2024-01-30T01:24:16;2.70;99.90
13336;DHT22;6737;51.480;11.962;2024-01-30T01:26:41;2.70;99.90
13336;DHT22;6737;51.480;11.962;2024-01-30T01:29:07;2.70;99.90
13336;DHT22;6737;51.480;11.962;2024-01-30T01:31:37;2.70;99.90
13336;DHT22;6737;51.480;11.962;2024-01-30T01:34:10;2.60;99.90
13336;DHT22;6737;51.480;11.962;2024-01-30T01:36:36;2.70;99.90
13336;DHT22;6737;51.480;11.962;2024-01-30T01:39:02;2.60;99.90
13336;DHT22;6737;51.480;11.962;2024-01-30T01:41:32;2.60;99.90
13336;DHT22;6737;51.480;11.962;2024-01-30T01:43:58;2.60;99.90
13336;DHT22;6737;51.480;11.962;2024-01-30T01:46:27;2.60;99.90
13336;DHT22;6737;51.480;11.962;2024-01-30T01:48:54;2.70;99.90
13336;DHT22;6737;51.480;11.962;2024-01-30T01:51:21;2.70;99.90
13336;DHT22;6737;51.480;11.962;2024-01-30T01:53:47;2.50;99.90
13336;DHT22;6737;51.480;11.962;2024-01-30T01:56:13;2.50;99.90
13336;DHT22;6737;51.480;11.962;2024-01-30T01:58:40;2.50;99.90
13336;DHT22;6737;51.480;11.962;2024-01-30T02:01:07;2.40;99.90
13336;DHT22;6737;51.480;11.962;2024-01-30T02:03:34;2.50;99.90
13336;DHT22;6737;51.480;11.962;2024-01-30T02:06:01;2.60;99.90
13336;DHT22;6737;51.480;11.962;2024-01-30T02:08:27;2.50;99.90
13336;DHT22;6737;51.480;11.962;2024-01-30T02:10:53;2.50;99.90
13336;DHT22;6737;51.480;11.962;2024-01-30T02:13:21;2.50;99.90
13336;DHT22;6737;51.480;11.962;2024-01-30T02:15:53;2.50;99.90
13336;DHT22;6737;51.480;11.962;2024-01-30T02:18:20;2.50;99.90
13336;DHT22;6737;51.480;11.962;2024-01-30T02:20:48;2.50;99.90
13336;DHT22;6737;51.480;11.962;2024-01-30T02:23:19;2.50;99.90
13336;DHT22;6737;51.480;11.962;2024-01-30T02:25:46;2.60;99.90
13336;DHT22;6737;51.480;11.962;2024-01-30T02:28:12;2.50;99.90
13336;DHT22;6737;51.480;11.962;2024-01-30T02:30:44;2.40;99.90
13336;DHT22;6737;51.480;11.962;2024-01-30T02:33:10;2.40;99.90
13336;DHT22;6737;51.480;11.962;2024-01-30T02:35:36;2.30;99.90
13336;DHT22;6737;51.480;11.962;2024-01-30T02:38:02;2.40;99.90
13336;DHT22;6737;51.480;11.962;2024-01-30T02:40:28;2.40;99.90
13336;DHT22;6737;51.480;11.962;2024-01-30T02:42:53;2.40;99.90
13336;DHT22;6737;51.480;11.962;2024-01-30T02:45:19;2.30;99.90
13336;DHT22;6737;51.480;11.962;2024-01-30T02:47:46;2.30;99.90
13336;DHT22;6737;51.480;11.962;2024-01-30T02:50:11;2.30;99.90
13336;DHT22;6737;51.480;11.962;2024-01-30T02:52:37;2.30;99.90
13336;DHT22;6737;51.480;11.962;2024-01-30T02:55:03;2.20;99.90
13336;DHT22;6737;51.480;11.962;2024-01-30T02:57:29;2.30;99.90
13336;DHT22;6737;51.480;11.962;2024-01-30T02:59:55;2.30;99.90
13336;DHT22;6737;51.480;11.962;2024-01-30T03:02:20;2.20;99.90
13336;DHT22;6737;51.480;11.962;2024-01-30T03:04:47;2.30;99.90
13336;DHT22;6737;51.480;11.962;2024-01-30T03:07:13;2.20;99.90
13336;DHT22;6737;51.480;11.962;2024-01-30T03:09:41;2.20;99.90
13336;DHT22;6737;51.480;11.962;2024-01-30T03:12:08;2.20;99.90
13336;DHT22;6737;51.480;11.962;2024-01-30T03:14:34;2.10;99.90
13336;DHT22;6737;51.480;11.962;2024-01-30T03:16:59;2.10;99.90
13336;DHT22;6737;51.480;11.962;2024-01-30T03:19:25;2.10;99.90
13336;DHT22;6737;51.480;11.962;2024-01-30T03:21:51;2.10;99.90
13336;DHT22;6737;51.480;11.962;2024-01-30T03:24:17;2.10;99.90
13336;DHT22;6737;51.480;11.962;2024-01-30T03:26:43;2.10;99.90
13336;DHT22;6737;51.480;11.962;2024-01-30T03:29:09;2.00;99.90
13336;DHT22;6737;51.480;11.962;2024-01-30T03:31:35;2.00;99.90
13336;DHT22;6737;51.480;11.962;2024-01-30T03:34:01;1.90;99.90
13336;DHT22;6737;51.480;11.962;2024-01-30T03:36:28;2.00;99.90
13336;DHT22;6737;51.480;11.962;2024-01-30T03:38:54;1.90;99.90
13336;DHT22;6737;51.480;11.962;2024-01-30T03:41:20;1.90;99.90
13336;DHT22;6737;51.480;11.962;2024-01-30T03:43:47;2.00;99.90
13336;DHT22;6737;51.480;11.962;2024-01-30T03:46:12;1.80;99.90
13336;DHT22;6737;51.480;11.962;2024-01-30T03:48:38;1.80;99.90
13336;DHT22;6737;51.480;11.962;2024-01-30T03:51:05;1.80;99.90
13336;DHT22;6737;51.480;11.962;2024-01-30T03:53:31;1.70;99.90
13336;DHT22;6737;51.480;11.962;2024-01-30T03:55:57;1.80;99.90
13336;DHT22;6737;51.480;11.962;2024-01-30T03:58:23;1.80;99.90
13336;DHT22;6737;51.480;11.962;2024-01-30T04:00:48;1.80;99.90
13336;DHT22;6737;51.480;11.962;2024-01-30T04:03:15;1.90;99.90
13336;DHT22;6737;51.480;11.962;2024-01-30T04:05:45;1.80;99.90
13336;DHT22;6737;51.480;11.962;2024-01-30T04:08:11;1.80;99.90
13336;DHT22;6737;51.480;11.962;2024-01-30T04:10:37;1.90;99.90
13336;DHT22;6737;51.480;11.962;2024-01-30T04:13:03;1.90;99.90
13336;DHT22;6737;51.480;11.962;2024-01-30T04:15:28;1.80;99.90
13336;DHT22;6737;51.480;11.962;2024-01-30T04:17:58;1.80;99.90
13336;DHT22;6737;51.480;11.962;2024-01-30T04:20:25;1.80;99.90
13336;DHT22;6737;51.480;11.962;2024-01-30T04:22:51;1.90;99.90
13336;DHT22;6737;51.480;11.962;2024-01-30T04:25:17;1.90;99.90
13336;DHT22;6737;51.480;11.962;2024-01-30T04:27:43;1.80;99.90
13336;DHT22;6737;51.480;11.962;2024-01-30T04:30:09;1.90;99.90
13336;DHT22;6737;51.480;11.962;2024-01-30T04:32:36;1.90;99.90
13336;DHT22;6737;51.480;11.962;2024-01-30T04:35:02;1.80;99.90
13336;DHT22;6737;51.480;11.962;2024-01-30T04:37:28;1.80;99.90
13336;DHT22;6737;51.480;11.962;2024-01-30T04:39:54;1.70;99.90
13336;DHT22;6737;51.480;11.962;2024-01-30T04:42:19;1.80;99.90
13336;DHT22;6737;51.480;11.962;2024-01-30T04:44:45;1.80;99.90
13336;DHT22;6737;51.480;11.962;2024-01-30T04:47:11;1.80;99.90
13336;DHT22;6737;51.480;11.962;2024-01-30T04:49:40;1.70;99.90
13336;DHT22;6737;51.480;11.962;2024-01-30T04:52:07;1.60;99.90
13336;DHT22;6737;51.480;11.962;2024-01-30T04:54:33;1.70;99.90
13336;DHT22;6737;51.480;11.962;2024-01-30T04:57:00;1.60;99.90
13336;DHT22;6737;51.480;11.962;2024-01-30T04:59:26;1.60;99.90
13336;DHT22;6737;51.480;11.962;2024-01-30T05:01:52;1.60;99.90
13336;DHT22;6737;51.480;11.962;2024-01-30T05:04:18;1.60;99.90
13336;DHT22;6737;51.480;11.962;2024-01-30T05:06:44;1.50;99.90
13336;DHT22;6737;51.480;11.962;2024-01-30T05:09:10;1.50;99.90
13336;DHT22;6737;51.480;11.962;2024-01-30T05:11:39;1.60;99.90
13336;DHT22;6737;51.480;11.962;2024-01-30T05:14:06;1.40;99.90
13336;DHT22;6737;51.480;11.962;2024-01-30T05:16:32;1.60;99.90
13336;DHT22;6737;51.480;11.962;2024-01-30T05:18:59;1.40;99.90
13336;DHT22;6737;51.480;11.962;2024-01-30T05:21:25;1.60;99.90
13336;DHT22;6737;51.480;11.962;2024-01-30T05:23:50;1.50;99.90
13336;DHT22;6737;51.480;11.962;2024-01-30T05:26:16;1.50;99.90
13336;DHT22;6737;51.480;11.962;2024-01-30T05:28:42;1.50;99.90
13336;DHT22;6737;51.480;11.962;2024-01-30T05:31:10;1.50;99.90
13336;DHT22;6737;51.480;11.962;2024-01-30T05:33:36;1.50;99.90
13336;DHT22;6737;51.480;11.962;2024-01-30T05:36:02;1.50;99.90
13336;DHT22;6737;51.480;11.962;2024-01-30T05:38:28;1.50;99.90
13336;DHT22;6737;51.480;11.962;2024-01-30T05:40:54;1.40;99.90
13336;DHT22;6737;51.480;11.962;2024-01-30T05:43:21;1.40;99.90
13336;DHT22;6737;51.480;11.962;2024-01-30T05:45:46;1.40;99.90
13336;DHT22;6737;51.480;11.962;2024-01-30T05:48:12;1.30;99.90
13336;DHT22;6737;51.480;11.962;2024-01-30T05:50:38;1.20;99.90
13336;DHT22;6737;51.480;11.962;2024-01-30T05:53:04;1.30;99.90
13336;DHT22;6737;51.480;11.962;2024-01-30T05:55:30;1.20;99.90
13336;DHT22;6737;51.480;11.962;2024-01-30T05:57:55;1.20;99.90
13336;DHT22;6737;51.480;11.962;2024-01-30T06:00:21;1.10;99.90
13336;DHT22;6737;51.480;11.962;2024-01-30T06:02:47;1.10;99.90
13336;DHT22;6737;51.480;11.962;2024-01-30T06:05:13;1.00;99.90
13336;DHT22;6737;51.480;11.962;2024-01-30T06:07:38;1.00;99.90
13336;DHT22;6737;51.480;11.962;2024-01-30T06:10:05;0.90;99.90
13336;DHT22;6737;51.480;11.962;2024-01-30T06:12:31;0.90;99.90
13336;DHT22;6737;51.480;11.962;2024-01-30T06:14:57;0.80;99.90
13336;DHT22;6737;51.480;11.962;2024-01-30T06:17:23;1.00;99.90
13336;DHT22;6737;51.480;11.962;2024-01-30T06:19:49;1.10;99.90
13336;DHT22;6737;51.480;11.962;2024-01-30T06:22:16;1.00;99.90
13336;DHT22;6737;51.480;11.962;2024-01-30T06:24:42;1.00;99.90
13336;DHT22;6737;51.480;11.962;2024-01-30T06:27:10;1.20;99.90
13336;DHT22;6737;51.480;11.962;2024-01-30T06:29:36;1.20;99.90
13336;DHT22;6737;51.480;11.962;2024-01-30T06:32:02;1.30;99.90
13336;DHT22;6737;51.480;11.962;2024-01-30T06:34:28;1.30;99.90
13336;DHT22;6737;51.480;11.962;2024-01-30T06:36:54;1.30;99.90
13336;DHT22;6737;51.480;11.962;2024-01-30T06:39:20;1.40;99.90
13336;DHT22;6737;51.480;11.962;2024-01-30T06:41:46;1.50;99.90
13336;DHT22;6737;51.480;11.962;2024-01-30T06:44:12;1.60;99.90
13336;DHT22;6737;51.480;11.962;2024-01-30T06:46:38;1.70;99.90
13336;DHT22;6737;51.480;11.962;2024-01-30T06:49:04;1.80;99.90
13336;DHT22;6737;51.480;11.962;2024-01-30T06:51:30;1.80;99.90
13336;DHT22;6737;51.480;11.962;2024-01-30T06:53:56;1.90;99.90
13336;DHT22;6737;51.480;11.962;2024-01-30T06:56:22;2.00;99.90
13336;DHT22;6737;51.480;11.962;2024-01-30T06:58:49;2.20;99.90
13336;DHT22;6737;51.480;11.962;2024-01-30T07:01:16;2.20;99.90
13336;DHT22;6737;51.480;11.962;2024-01-30T07:03:43;2.20;99.90
13336;DHT22;6737;51.480;11.962;2024-01-30T07:06:09;2.10;99.90
13336;DHT22;6737;51.480;11.962;2024-01-30T07:08:37;2.20;99.90
13336;DHT22;6737;51.480;11.962;2024-01-30T07:11:06;2.30;99.90
13336;DHT22;6737;51.480;11.962;2024-01-30T07:13:32;2.40;99.90
13336;DHT22;6737;51.480;11.962;2024-01-30T07:15:58;2.40;99.90
13336;DHT22;6737;51.480;11.962;2024-01-30T07:18:24;2.40;99.90
13336;DHT22;6737;51.480;11.962;2024-01-30T07:20:50;2.30;99.90
13336;DHT22;6737;51.480;11.962;2024-01-30T07:23:16;2.30;99.90
13336;DHT22;6737;51.480;11.962;2024-01-30T07:25:46;2.20;99.90
13336;DHT22;6737;51.480;11.962;2024-01-30T07:28:14;2.20;99.90
13336;DHT22;6737;51.480;11.962;2024-01-30T07:30:42;2.20;99.90
13336;DHT22;6737;51.480;11.962;2024-01-30T07:33:08;2.20;99.90
13336;DHT22;6737;51.480;11.962;2024-01-30T07:35:35;2.10;99.90
13336;DHT22;6737;51.480;11.962;2024-01-30T07:38:01;2.10;99.90
13336;DHT22;6737;51.480;11.962;2024-01-30T07:40:27;2.10;99.90
13336;DHT22;6737;51.480;11.962;2024-01-30T07:42:53;2.10;99.90
13336;DHT22;6737;51.480;11.962;2024-01-30T07:45:20;2.10;99.90
13336;DHT22;6737;51.480;11.962;2024-01-30T07:47:51;2.10;99.90
13336;DHT22;6737;51.480;11.962;2024-01-30T07:50:17;2.20;99.90
13336;DHT22;6737;51.480;11.962;2024-01-30T07:52:44;2.20;99.90
13336;DHT22;6737;51.480;11.962;2024-01-30T07:55:10;2.20;99.90
13336;DHT22;6737;51.480;11.962;2024-01-30T07:57:41;2.30;99.90
13336;DHT22;6737;51.480;11.962;2024-01-30T08:00:07;2.30;99.90
13336;DHT22;6737;51.480;11.962;2024-01-30T08:02:34;2.30;99.90
13336;DHT22;6737;51.480;11.962;2024-01-30T08:05:00;2.40;99.90
13336;DHT22;6737;51.480;11.962;2024-01-30T08:07:26;2.30;99.90
13336;DHT22;6737;51.480;11.962;2024-01-30T08:09:51;2.40;99.90
13336;DHT22;6737;51.480;11.962;2024-01-30T08:12:17;2.40;99.90
13336;DHT22;6737;51.480;11.962;2024-01-30T08:14:43;2.50;99.90
13336;DHT22;6737;51.480;11.962;2024-01-30T08:17:09;2.50;99.90
13336;DHT22;6737;51.480;11.962;2024-01-30T08:19:35;2.50;99.90
13336;DHT22;6737;51.480;11.962;2024-01-30T08:22:01;2.70;99.90
13336;DHT22;6737;51.480;11.962;2024-01-30T08:24:27;2.70;99.90
13336;DHT22;6737;51.480;11.962;2024-01-30T08:26:52;2.80;99.90
13336;DHT22;6737;51.480;11.962;2024-01-30T08:29:18;2.90;99.90
13336;DHT22;6737;51.480;11.962;2024-01-30T08:31:44;3.00;99.90
13336;DHT22;6737;51.480;11.962;2024-01-30T08:34:12;3.10;99.90
13336;DHT22;6737;51.480;11.962;2024-01-30T08:36:37;3.20;99.90
13336;DHT22;6737;51.480;11.962;2024-01-30T08:39:03;3.30;99.90
13336;DHT22;6737;51.480;11.962;2024-01-30T08:41:31;3.40;99.90
13336;DHT22;6737;51.480;11.962;2024-01-30T08:43:57;3.50;99.90
13336;DHT22;6737;51.480;11.962;2024-01-30T08:46:22;3.60;99.90
13336;DHT22;6737;51.480;11.962;2024-01-30T08:48:48;3.70;99.90
13336;DHT22;6737;51.480;11.962;2024-01-30T08:51:14;3.90;99.90
13336;DHT22;6737;51.480;11.962;2024-01-30T08:53:40;4.00;99.90
13336;DHT22;6737;51.480;11.962;2024-01-30T08:56:07;4.20;99.90
13336;DHT22;6737;51.480;11.962;2024-01-30T08:58:33;4.30;99.90
13336;DHT22;6737;51.480;11.962;2024-01-30T09:00:59;4.50;99.90
13336;DHT22;6737;51.480;11.962;2024-01-30T09:03:25;4.60;99.90
13336;DHT22;6737;51.480;11.962;2024-01-30T09:05:51;4.70;99.90
13336;DHT22;6737;51.480;11.962;2024-01-30T09:08:17;4.80;99.90
13336;DHT22;6737;51.480;11.962;2024-01-30T09:10:43;4.90;99.90
13336;DHT22;6737;51.480;11.962;2024-01-30T09:13:10;4.90;99.90
13336;DHT22;6737;51.480;11.962;2024-01-30T09:15:35;5.00;99.90
13336;DHT22;6737;51.480;11.962;2024-01-30T09:18:02;5.10;99.90
13336;DHT22;6737;51.480;11.962;2024-01-30T09:20:28;5.20;99.90
13336;DHT22;6737;51.480;11.962;2024-01-30T09:22:54;5.40;99.90
13336;DHT22;6737;51.480;11.962;2024-01-30T09:25:19;5.50;99.90
13336;DHT22;6737;51.480;11.962;2024-01-30T09:27:46;5.50;99.90
13336;DHT22;6737;51.480;11.962;2024-01-30T09:30:12;5.60;99.90
13336;DHT22;6737;51.480;11.962;2024-01-30T09:32:40;5.70;99.90
13336;DHT22;6737;51.480;11.962;2024-01-30T09:35:06;5.80;99.90
13336;DHT22;6737;51.480;11.962;2024-01-30T09:37:32;5.80;99.90
13336;DHT22;6737;51.480;11.962;2024-01-30T09:39:58;5.90;99.90
13336;DHT22;6737;51.480;11.962;2024-01-30T09:42:38;5.90;99.90
13336;DHT22;6737;51.480;11.962;2024-01-30T09:45:06;6.00;99.90
13336;DHT22;6737;51.480;11.962;2024-01-30T09:47:41;6.00;99.90
13336;DHT22;6737;51.480;11.962;2024-01-30T09:50:11;6.10;99.90
13336;DHT22;6737;51.480;11.962;2024-01-30T09:52:37;6.20;99.90
13336;DHT22;6737;51.480;11.962;2024-01-30T09:55:04;6.20;99.90
13336;DHT22;6737;51.480;11.962;2024-01-30T09:57:30;6.30;99.90
13336;DHT22;6737;51.480;11.962;2024-01-30T09:59:56;6.30;99.90
13336;DHT22;6737;51.480;11.962;2024-01-30T10:02:23;6.40;99.90
13336;DHT22;6737;51.480;11.962;2024-01-30T10:04:50;6.50;99.90
13336;DHT22;6737;51.480;11.962;2024-01-30T10:07:16;6.50;99.90
13336;DHT22;6737;51.480;11.962;2024-01-30T10:09:43;6.60;99.90
13336;DHT22;6737;51.480;11.962;2024-01-30T10:12:12;6.60;99.90
13336;DHT22;6737;51.480;11.962;2024-01-30T10:14:42;6.70;99.90
13336;DHT22;6737;51.480;11.962;2024-01-30T10:17:09;6.80;99.90
13336;DHT22;6737;51.480;11.962;2024-01-30T10:19:40;6.80;99.90
13336;DHT22;6737;51.480;11.962;2024-01-30T10:22:06;6.80;99.90
13336;DHT22;6737;51.480;11.962;2024-01-30T10:24:33;6.90;99.90
13336;DHT22;6737;51.480;11.962;2024-01-30T10:27:00;7.00;99.90
13336;DHT22;6737;51.480;11.962;2024-01-30T10:29:27;7.00;99.90
13336;DHT22;6737;51.480;11.962;2024-01-30T10:32:04;7.10;99.90
13336;DHT22;6737;51.480;11.962;2024-01-30T10:34:31;7.30;99.90
13336;DHT22;6737;51.480;11.962;2024-01-30T10:37:08;7.30;99.90
13336;DHT22;6737;51.480;11.962;2024-01-30T10:39:39;7.40;99.90
13336;DHT22;6737;51.480;11.962;2024-01-30T10:42:08;7.40;99.90
13336;DHT22;6737;51.480;11.962;2024-01-30T10:45:08;7.50;99.90
13336;DHT22;6737;51.480;11.962;2024-01-30T10:47:35;7.60;99.90
13336;DHT22;6737;51.480;11.962;2024-01-30T10:50:05;7.60;99.90
13336;DHT22;6737;51.480;11.962;2024-01-30T10:52:33;7.60;99.90
13336;DHT22;6737;51.480;11.962;2024-01-30T10:54:59;7.60;99.90
13336;DHT22;6737;51.480;11.962;2024-01-30T10:57:26;7.70;99.90
13336;DHT22;6737;51.480;11.962;2024-01-30T10:59:57;7.70;99.90
13336;DHT22;6737;51.480;11.962;2024-01-30T11:02:24;7.80;99.90
13336;DHT22;6737;51.480;11.962;2024-01-30T11:04:58;7.80;99.90
13336;DHT22;6737;51.480;11.962;2024-01-30T11:07:25;7.90;99.90
13336;DHT22;6737;51.480;11.962;2024-01-30T11:10:03;8.00;99.90
13336;DHT22;6737;51.480;11.962;2024-01-30T11:12:31;8.10;99.90
13336;DHT22;6737;51.480;11.962;2024-01-30T11:15:04;8.10;99.90
13336;DHT22;6737;51.480;11.962;2024-01-30T11:17:51;8.10;99.90
13336;DHT22;6737;51.480;11.962;2024-01-30T11:20:27;8.30;99.90
13336;DHT22;6737;51.480;11.962;2024-01-30T11:22:56;8.30;99.90
13336;DHT22;6737;51.480;11.962;2024-01-30T11:25:24;8.40;99.90
13336;DHT22;6737;51.480;11.962;2024-01-30T11:27:53;8.50;99.90
13336;DHT22;6737;51.480;11.962;2024-01-30T11:33:27;8.60;99.90
13336;DHT22;6737;51.480;11.962;2024-01-30T11:35:57;8.60;99.90
13336;DHT22;6737;51.480;11.962;2024-01-30T11:38:26;8.70;99.90
13336;DHT22;6737;51.480;11.962;2024-01-30T11:40:54;8.70;99.90
13336;DHT22;6737;51.480;11.962;2024-01-30T11:43:22;8.70;99.90
13336;DHT22;6737;51.480;11.962;2024-01-30T11:45:49;8.70;99.90
13336;DHT22;6737;51.480;11.962;2024-01-30T11:48:15;8.70;99.90
13336;DHT22;6737;51.480;11.962;2024-01-30T11:50:41;8.70;99.90
13336;DHT22;6737;51.480;11.962;2024-01-30T11:53:07;8.80;99.90
13336;DHT22;6737;51.480;11.962;2024-01-30T11:55:33;8.80;99.90
13336;DHT22;6737;51.480;11.962;2024-01-30T11:58:01;8.80;99.90
13336;DHT22;6737;51.480;11.962;2024-01-30T12:00:27;8.90;99.90
13336;DHT22;6737;51.480;11.962;2024-01-30T12:02:55;8.90;99.90
13336;DHT22;6737;51.480;11.962;2024-01-30T12:05:26;8.90;99.90
13336;DHT22;6737;51.480;11.962;2024-01-30T12:07:53;9.00;99.90
13336;DHT22;6737;51.480;11.962;2024-01-30T12:10:19;9.10;99.90
13336;DHT22;6737;51.480;11.962;2024-01-30T12:12:49;9.20;99.90
13336;DHT22;6737;51.480;11.962;2024-01-30T12:15:16;9.30;99.90
13336;DHT22;6737;51.480;11.962;2024-01-30T12:17:42;9.40;99.90
13336;DHT22;6737;51.480;11.962;2024-01-30T12:20:12;9.50;99.90
13336;DHT22;6737;51.480;11.962;2024-01-30T12:22:43;9.50;99.90
13336;DHT22;6737;51.480;11.962;2024-01-30T12:25:13;9.40;99.90
13336;DHT22;6737;51.480;11.962;2024-01-30T12:27:43;9.40;99.90
13336;DHT22;6737;51.480;11.962;2024-01-30T12:30:11;9.50;99.90
13336;DHT22;6737;51.480;11.962;2024-01-30T12:32:42;9.50;99.90
13336;DHT22;6737;51.480;11.962;2024-01-30T12:35:19;9.50;99.90
13336;DHT22;6737;51.480;11.962;2024-01-30T12:37:46;9.50;99.90
13336;DHT22;6737;51.480;11.962;2024-01-30T12:40:13;9.50;99.90
13336;DHT22;6737;51.480;11.962;2024-01-30T12:42:43;9.50;99.90
13336;DHT22;6737;51.480;11.962;2024-01-30T12:45:14;9.60;99.90
13336;DHT22;6737;51.480;11.962;2024-01-30T12:47:41;9.60;99.90
13336;DHT22;6737;51.480;11.962;2024-01-30T12:50:07;9.60;99.90
13336;DHT22;6737;51.480;11.962;2024-01-30T12:52:35;9.70;99.90
13336;DHT22;6737;51.480;11.962;2024-01-30T12:55:01;9.70;99.90
13336;DHT22;6737;51.480;11.962;2024-01-30T12:57:29;9.80;99.90
13336;DHT22;6737;51.480;11.962;2024-01-30T12:59:56;9.70;99.90
13336;DHT22;6737;51.480;11.962;2024-01-30T13:02:22;9.70;99.90
13336;DHT22;6737;51.480;11.962;2024-01-30T13:04:48;9.70;99.90
13336;DHT22;6737;51.480;11.962;2024-01-30T13:07:14;9.80;99.90
13336;DHT22;6737;51.480;11.962;2024-01-30T13:09:40;9.80;99.90
13336;DHT22;6737;51.480;11.962;2024-01-30T13:12:06;9.80;99.90
13336;DHT22;6737;51.480;11.962;2024-01-30T13:14:32;9.80;99.90
13336;DHT22;6737;51.480;11.962;2024-01-30T13:16:58;9.80;99.90
13336;DHT22;6737;51.480;11.962;2024-01-30T13:19:24;9.80;99.90
13336;DHT22;6737;51.480;11.962;2024-01-30T13:21:50;9.70;99.90
13336;DHT22;6737;51.480;11.962;2024-01-30T13:24:16;9.70;99.90
13336;DHT22;6737;51.480;11.962;2024-01-30T13:26:42;9.70;99.90
13336;DHT22;6737;51.480;11.962;2024-01-30T13:29:09;9.70;99.90
13336;DHT22;6737;51.480;11.962;2024-01-30T13:31:35;9.70;99.90
13336;DHT22;6737;51.480;11.962;2024-01-30T13:34:01;9.70;99.90
13336;DHT22;6737;51.480;11.962;2024-01-30T13:36:27;9.80;99.90
13336;DHT22;6737;51.480;11.962;2024-01-30T13:38:53;9.70;99.90
13336;DHT22;6737;51.480;11.962;2024-01-30T13:41:19;9.70;99.90
13336;DHT22;6737;51.480;11.962;2024-01-30T13:43:46;9.80;99.90
13336;DHT22;6737;51.480;11.962;2024-01-30T13:46:12;9.80;99.90
13336;DHT22;6737;51.480;11.962;2024-01-30T13:48:38;9.80;99.90
13336;DHT22;6737;51.480;11.962;2024-01-30T13:51:04;9.80;99.90
13336;DHT22;6737;51.480;11.962;2024-01-30T13:53:30;9.80;99.90
13336;DHT22;6737;51.480;11.962;2024-01-30T13:55:56;9.80;99.90
13336;DHT22;6737;51.480;11.962;2024-01-30T13:58:22;9.80;99.90
13336;DHT22;6737;51.480;11.962;2024-01-30T14:00:47;9.80;99.90
13336;DHT22;6737;51.480;11.962;2024-01-30T14:03:14;9.80;99.90
13336;DHT22;6737;51.480;11.962;2024-01-30T14:05:40;9.90;99.90
13336;DHT22;6737;51.480;11.962;2024-01-30T14:08:07;9.80;99.90
13336;DHT22;6737;51.480;11.962;2024-01-30T14:10:34;9.90;99.90
13336;DHT22;6737;51.480;11.962;2024-01-30T14:13:00;9.90;99.90
13336;DHT22;6737;51.480;11.962;2024-01-30T14:15:26;9.90;99.90
13336;DHT22;6737;51.480;11.962;2024-01-30T14:17:52;9.90;99.90
13336;DHT22;6737;51.480;11.962;2024-01-30T14:20:18;9.80;99.90
13336;DHT22;6737;51.480;11.962;2024-01-30T14:22:44;9.80;99.90
13336;DHT22;6737;51.480;11.962;2024-01-30T14:25:10;9.70;99.90
13336;DHT22;6737;51.480;11.962;2024-01-30T14:27:36;9.70;99.90
13336;DHT22;6737;51.480;11.962;2024-01-30T14:30:02;9.70;99.90
13336;DHT22;6737;51.480;11.962;2024-01-30T14:32:29;9.60;99.90
13336;DHT22;6737;51.480;11.962;2024-01-30T14:34:55;9.60;99.90
13336;DHT22;6737;51.480;11.962;2024-01-30T14:37:21;9.50;99.90
13336;DHT22;6737;51.480;11.962;2024-01-30T14:39:47;9.50;99.90
13336;DHT22;6737;51.480;11.962;2024-01-30T14:42:14;9.40;99.90
13336;DHT22;6737;51.480;11.962;2024-01-30T14:44:41;9.40;99.90
13336;DHT22;6737;51.480;11.962;2024-01-30T14:47:07;9.30;99.90
13336;DHT22;6737;51.480;11.962;2024-01-30T14:49:33;9.30;99.90
13336;DHT22;6737;51.480;11.962;2024-01-30T14:52:00;9.30;99.90
13336;DHT22;6737;51.480;11.962;2024-01-30T14:54:26;9.20;99.90
13336;DHT22;6737;51.480;11.962;2024-01-30T14:56:53;9.20;99.90
13336;DHT22;6737;51.480;11.962;2024-01-30T14:59:19;9.20;99.90
13336;DHT22;6737;51.480;11.962;2024-01-30T15:01:45;9.10;99.90
13336;DHT22;6737;51.480;11.962;2024-01-30T15:04:12;9.10;99.90
13336;DHT22;6737;51.480;11.962;2024-01-30T15:06:38;9.00;99.90
13336;DHT22;6737;51.480;11.962;2024-01-30T15:09:05;9.00;99.90
13336;DHT22;6737;51.480;11.962;2024-01-30T15:11:32;9.00;99.90
13336;DHT22;6737;51.480;11.962;2024-01-30T15:13:59;8.90;99.90
13336;DHT22;6737;51.480;11.962;2024-01-30T15:16:25;8.90;99.90
13336;DHT22;6737;51.480;11.962;2024-01-30T15:18:50;8.90;99.90
13336;DHT22;6737;51.480;11.962;2024-01-30T15:21:16;8.80;99.90
13336;DHT22;6737;51.480;11.962;2024-01-30T15:23:48;8.80;99.90
13336;DHT22;6737;51.480;11.962;2024-01-30T15:26:14;8.70;99.90
13336;DHT22;6737;51.480;11.962;2024-01-30T15:28:40;8.60;99.90
13336;DHT22;6737;51.480;11.962;2024-01-30T15:31:07;8.50;99.90
13336;DHT22;6737;51.480;11.962;2024-01-30T15:33:33;8.50;99.90
13336;DHT22;6737;51.480;11.962;2024-01-30T15:36:00;8.50;99.90
13336;DHT22;6737;51.480;11.962;2024-01-30T15:38:27;8.50;99.90
13336;DHT22;6737;51.480;11.962;2024-01-30T15:40:53;8.40;99.90
13336;DHT22;6737;51.480;11.962;2024-01-30T15:43:19;8.40;99.90
13336;DHT22;6737;51.480;11.962;2024-01-30T15:45:45;8.40;99.90